Time;durP1;ratioP1;P1;durP2;ratioP2;P2;SDS_P1;SDS_P2;PMS_P1;PMS_P2;Temp;Humidity;BMP_temperature;BMP_pressure;BME280_temperature;BME280_humidity;BME280_pressure;Samples;Min_cycle;Max_cycle;Signal;HPM_P1;HPM_P2
2024/04/07 00:00:26;;;;;;;6.95;2.95;;;;;;;;;;4961567;28;20130;-66
2024/04/07 00:02:53;;;;;;;9.98;2.67;;;;;;;;;;4947267;28;20054;-65
2024/04/07 00:05:19;;;;;;;8.23;2.50;;;;;;;;;;4946318;28;20122;-66
2024/04/07 00:07:46;;;;;;;7.43;2.90;;;;;;;;;;4966199;28;22026;-66
2024/04/07 00:10:12;;;;;;;11.70;3.72;;;;;;;;;;4963031;28;20043;-65
2024/04/07 00:12:38;;;;;;;6.40;2.45;;;;;;;;;;4946216;28;20078;-66
2024/04/07 00:15:05;;;;;;;7.25;2.25;;;;;;;;;;4947902;28;20034;-66
2024/04/07 00:17:32;;;;;;;9.85;2.33;;;;;;;;;;4956380;28;20487;-65
2024/04/07 00:19:58;;;;;;;9.07;2.65;;;;;;;;;;4948700;28;20043;-66
2024/04/07 00:22:25;;;;;;;10.68;2.72;;;;;;;;;;4958563;28;20489;-66
2024/04/07 00:24:52;;;;;;;13.30;3.17;;;;;;;;;;4969185;28;20453;-66
2024/04/07 00:27:19;;;;;;;8.02;2.30;;;;;;;;;;4950717;28;20197;-66
2024/04/07 00:29:46;;;;;;;8.48;3.13;;;;;;;;;;4949620;28;20514;-66
2024/04/07 00:32:13;;;;;;;7.55;3.13;;;;;;;;;;4966754;28;20652;-66
2024/04/07 00:34:39;;;;;;;9.07;2.42;;;;;;;;;;4947306;28;20046;-66
2024/04/07 00:37:05;;;;;;;7.97;2.53;;;;;;;;;;4946199;28;20047;-66
2024/04/07 00:39:32;;;;;;;10.75;2.95;;;;;;;;;;4949346;28;20091;-66
2024/04/07 00:41:58;;;;;;;9.52;2.65;;;;;;;;;;4949861;28;20151;-66
2024/04/07 00:44:25;;;;;;;10.82;3.22;;;;;;;;;;4951122;28;20043;-66
2024/04/07 00:46:51;;;;;;;6.35;2.53;;;;;;;;;;4950026;28;20130;-66
2024/04/07 00:49:18;;;;;;;8.55;2.05;;;;;;;;;;4949312;28;20047;-66
2024/04/07 00:51:44;;;;;;;8.90;2.70;;;;;;;;;;4949788;28;20081;-66
2024/04/07 00:54:12;;;;;;;9.43;2.50;;;;;;;;;;4950889;28;20325;-66
2024/04/07 00:56:38;;;;;;;8.63;2.28;;;;;;;;;;4949090;28;20039;-66
2024/04/07 00:59:04;;;;;;;6.72;2.72;;;;;;;;;;4948315;28;20503;-65
2024/04/07 01:01:30;;;;;;;9.05;2.72;;;;;;;;;;4949613;28;20053;-65
2024/04/07 01:03:56;;;;;;;5.30;1.88;;;;;;;;;;4950425;28;20091;-66
2024/04/07 01:06:22;;;;;;;19.30;2.17;;;;;;;;;;4950139;28;20077;-66
2024/04/07 01:08:49;;;;;;;7.53;2.00;;;;;;;;;;4964944;28;20058;-66
2024/04/07 01:11:16;;;;;;;5.13;1.48;;;;;;;;;;4948970;28;20455;-66
2024/04/07 01:13:42;;;;;;;6.85;1.75;;;;;;;;;;4951367;28;20082;-66
2024/04/07 01:16:08;;;;;;;7.32;2.13;;;;;;;;;;4948250;28;20443;-65
2024/04/07 01:18:34;;;;;;;4.97;1.40;;;;;;;;;;4947283;28;20058;-66
2024/04/07 01:21:01;;;;;;;6.50;1.30;;;;;;;;;;4948507;28;20142;-66
2024/04/07 01:23:27;;;;;;;8.00;1.20;;;;;;;;;;4930083;28;20047;-65
2024/04/07 01:25:53;;;;;;;8.20;1.48;;;;;;;;;;4945579;28;20058;-64
2024/04/07 01:28:19;;;;;;;10.30;1.23;;;;;;;;;;4963076;28;20566;-66
2024/04/07 01:30:46;;;;;;;5.93;2.35;;;;;;;;;;4965515;28;20126;-65
2024/04/07 01:33:12;;;;;;;6.55;1.50;;;;;;;;;;4963643;28;20606;-65
2024/04/07 01:35:39;;;;;;;5.88;1.10;;;;;;;;;;4963806;28;20124;-65
2024/04/07 01:38:05;;;;;;;4.90;1.40;;;;;;;;;;4945849;28;20420;-65
2024/04/07 01:40:31;;;;;;;7.65;1.48;;;;;;;;;;4962402;28;20119;-64
2024/04/07 01:42:58;;;;;;;5.43;1.02;;;;;;;;;;4946145;28;20113;-64
2024/04/07 01:45:24;;;;;;;6.00;1.55;;;;;;;;;;4946043;28;20038;-64
2024/04/07 01:47:50;;;;;;;4.97;1.20;;;;;;;;;;4963532;28;20105;-65
2024/04/07 01:50:16;;;;;;;6.25;1.63;;;;;;;;;;4965279;28;20037;-65
2024/04/07 01:52:42;;;;;;;8.07;1.40;;;;;;;;;;4946253;28;20054;-65
2024/04/07 01:55:08;;;;;;;6.88;1.45;;;;;;;;;;4944906;28;20486;-64
2024/04/07 01:57:36;;;;;;;7.88;2.25;;;;;;;;;;4962062;28;20496;-65
2024/04/07 02:00:07;;;;;;;3.53;0.93;;;;;;;;;;4933234;28;20130;-65
2024/04/07 02:02:34;;;;;;;10.85;3.08;;;;;;;;;;4949514;28;20809;-65
2024/04/07 02:05:00;;;;;;;4.65;1.08;;;;;;;;;;4946339;28;20465;-65
2024/04/07 02:07:26;;;;;;;4.32;0.90;;;;;;;;;;4945198;28;20062;-65
2024/04/07 02:09:52;;;;;;;7.10;1.05;;;;;;;;;;4945265;28;20133;-65
2024/04/07 02:12:19;;;;;;;5.07;1.17;;;;;;;;;;4961339;28;20058;-65
2024/04/07 02:14:45;;;;;;;4.57;1.15;;;;;;;;;;4945886;28;20043;-66
2024/04/07 02:17:11;;;;;;;6.43;1.00;;;;;;;;;;4962792;28;20046;-66
2024/04/07 02:19:38;;;;;;;3.72;0.80;;;;;;;;;;4938869;28;20494;-65
2024/04/07 02:22:05;;;;;;;5.72;0.93;;;;;;;;;;4962324;28;20047;-66
2024/04/07 02:24:31;;;;;;;6.95;1.40;;;;;;;;;;4963490;28;20055;-65
2024/04/07 02:26:57;;;;;;;3.88;0.90;;;;;;;;;;4964033;28;20110;-65
2024/04/07 02:29:24;;;;;;;3.85;0.70;;;;;;;;;;4965164;28;20453;-66
2024/04/07 02:31:50;;;;;;;4.63;1.60;;;;;;;;;;4966014;28;20049;-65
2024/04/07 02:34:16;;;;;;;4.30;0.93;;;;;;;;;;4965796;28;20222;-65
2024/04/07 02:36:43;;;;;;;4.72;0.90;;;;;;;;;;4965623;28;20565;-65
2024/04/07 02:39:09;;;;;;;2.40;0.70;;;;;;;;;;4964576;28;20351;-65
2024/04/07 02:41:36;;;;;;;4.72;1.30;;;;;;;;;;4946637;28;20130;-65
2024/04/07 02:44:03;;;;;;;3.38;0.80;;;;;;;;;;4943518;28;20050;-65
2024/04/07 02:49:16;;;;;;;5.75;1.10;;;;;;;;;;4966736;28;20082;-65
2024/04/07 02:51:42;;;;;;;4.18;0.90;;;;;;;;;;4943330;28;20043;-65
2024/04/07 02:54:10;;;;;;;4.07;0.90;;;;;;;;;;4962281;28;20411;-65
2024/04/07 02:56:36;;;;;;;3.78;0.95;;;;;;;;;;4944854;28;20464;-65
2024/04/07 02:59:03;;;;;;;5.53;1.08;;;;;;;;;;4963077;28;20039;-65
2024/04/07 03:01:29;;;;;;;3.90;1.13;;;;;;;;;;4963926;28;20051;-65
2024/04/07 03:03:56;;;;;;;3.20;0.90;;;;;;;;;;4961025;28;20371;-66
2024/04/07 03:06:22;;;;;;;4.05;1.23;;;;;;;;;;4945004;28;20055;-65
2024/04/07 03:08:49;;;;;;;4.68;1.05;;;;;;;;;;4942480;28;20063;-66
2024/04/07 03:11:15;;;;;;;7.10;1.77;;;;;;;;;;4944700;28;20514;-65
2024/04/07 03:13:41;;;;;;;4.32;1.00;;;;;;;;;;4961446;28;20170;-65
2024/04/07 03:16:10;;;;;;;4.75;0.95;;;;;;;;;;4954279;28;20048;-65
2024/04/07 03:18:36;;;;;;;3.28;0.90;;;;;;;;;;4943387;28;20530;-66
2024/04/07 03:21:03;;;;;;;3.08;1.08;;;;;;;;;;4947688;28;20050;-67
2024/04/07 03:23:29;;;;;;;2.88;0.85;;;;;;;;;;4962429;28;20412;-66
2024/04/07 03:25:55;;;;;;;5.35;0.90;;;;;;;;;;4944063;28;20046;-66
2024/04/07 03:28:22;;;;;;;3.90;0.90;;;;;;;;;;4953220;28;20477;-66
2024/04/07 03:30:48;;;;;;;6.78;1.20;;;;;;;;;;4943809;28;20122;-66
2024/04/07 03:33:14;;;;;;;4.30;0.80;;;;;;;;;;4945523;28;20062;-66
2024/04/07 03:35:40;;;;;;;3.30;1.00;;;;;;;;;;4965415;28;20869;-66
2024/04/07 03:38:07;;;;;;;4.25;0.95;;;;;;;;;;4945716;28;20158;-67
2024/04/07 03:40:37;;;;;;;7.35;1.10;;;;;;;;;;4962227;28;20121;-66
2024/04/07 03:43:03;;;;;;;4.05;0.80;;;;;;;;;;4947741;28;20086;-66
2024/04/07 03:45:29;;;;;;;3.72;0.90;;;;;;;;;;4966468;28;20551;-66
2024/04/07 03:47:56;;;;;;;6.10;1.17;;;;;;;;;;4964282;28;20394;-66
2024/04/07 03:50:22;;;;;;;3.10;0.90;;;;;;;;;;4965300;28;20073;-66
2024/04/07 03:52:48;;;;;;;3.80;1.10;;;;;;;;;;4964530;28;20070;-66
2024/04/07 03:55:14;;;;;;;6.20;1.10;;;;;;;;;;4965242;28;20054;-66
2024/04/07 03:57:40;;;;;;;6.18;1.20;;;;;;;;;;4931228;28;20046;-67
2024/04/07 04:00:07;;;;;;;4.45;1.20;;;;;;;;;;4964386;28;20043;-66
2024/04/07 04:02:34;;;;;;;7.97;1.45;;;;;;;;;;4946753;28;20122;-67
2024/04/07 04:05:01;;;;;;;4.22;1.35;;;;;;;;;;4965328;28;20130;-66
2024/04/07 04:07:27;;;;;;;7.18;1.40;;;;;;;;;;4964978;28;20055;-67
2024/04/07 04:09:54;;;;;;;6.25;1.23;;;;;;;;;;4944680;28;20057;-66
2024/04/07 04:12:21;;;;;;;6.18;1.45;;;;;;;;;;4948470;28;20429;-66
2024/04/07 04:14:47;;;;;;;7.35;1.30;;;;;;;;;;4965353;28;20138;-66
2024/04/07 04:17:14;;;;;;;5.88;1.10;;;;;;;;;;4947160;28;20058;-66
2024/04/07 04:19:41;;;;;;;7.80;1.35;;;;;;;;;;4965003;28;22105;-66
2024/04/07 04:22:07;;;;;;;3.65;1.40;;;;;;;;;;4967903;28;20062;-66
2024/04/07 04:24:35;;;;;;;4.10;1.20;;;;;;;;;;4948379;28;20080;-66
2024/04/07 04:27:02;;;;;;;3.47;1.20;;;;;;;;;;4965851;28;20431;-66
2024/04/07 04:29:29;;;;;;;7.10;1.00;;;;;;;;;;4964235;28;20174;-66
2024/04/07 04:31:56;;;;;;;5.60;1.38;;;;;;;;;;4965297;28;20583;-66
2024/04/07 04:34:23;;;;;;;3.88;0.90;;;;;;;;;;4964612;28;20038;-66
2024/04/07 04:36:50;;;;;;;5.28;1.20;;;;;;;;;;4964245;28;20513;-66
2024/04/07 04:39:17;;;;;;;2.60;0.90;;;;;;;;;;4963553;28;20134;-66
2024/04/07 04:41:45;;;;;;;7.95;1.00;;;;;;;;;;4963437;28;20093;-67
2024/04/07 04:44:12;;;;;;;3.50;1.00;;;;;;;;;;4965398;28;20159;-66
2024/04/07 04:46:41;;;;;;;6.53;1.65;;;;;;;;;;4965128;28;20785;-65
2024/04/07 04:49:08;;;;;;;5.25;1.35;;;;;;;;;;4966683;28;20099;-66
2024/04/07 04:51:34;;;;;;;3.42;0.93;;;;;;;;;;4964632;28;20046;-67
2024/04/07 04:54:01;;;;;;;5.75;1.50;;;;;;;;;;4968321;28;20054;-67
2024/04/07 04:56:27;;;;;;;7.72;1.17;;;;;;;;;;4966636;28;20043;-67
2024/04/07 04:58:54;;;;;;;4.05;1.10;;;;;;;;;;4967285;28;20039;-67
2024/04/07 05:01:20;;;;;;;4.00;1.00;;;;;;;;;;4943690;28;20340;-67
2024/04/07 05:03:46;;;;;;;4.13;1.27;;;;;;;;;;4948714;28;20128;-65
2024/04/07 05:06:13;;;;;;;5.40;1.50;;;;;;;;;;4948466;28;20046;-65
2024/04/07 05:08:40;;;;;;;6.63;1.13;;;;;;;;;;4949778;28;20407;-65
2024/04/07 05:11:06;;;;;;;3.60;1.15;;;;;;;;;;4949070;28;20058;-65
2024/04/07 05:13:33;;;;;;;3.85;1.08;;;;;;;;;;4965549;28;20055;-65
2024/04/07 05:15:59;;;;;;;4.68;1.15;;;;;;;;;;4949698;28;20039;-65
2024/04/07 05:18:26;;;;;;;7.57;1.60;;;;;;;;;;4966721;28;20051;-65
2024/04/07 05:20:55;;;;;;;4.40;1.17;;;;;;;;;;4948925;28;20054;-65
2024/04/07 05:23:21;;;;;;;5.93;0.95;;;;;;;;;;4965992;28;20046;-65
2024/04/07 05:25:47;;;;;;;6.68;2.15;;;;;;;;;;4966704;28;20131;-65
2024/04/07 05:28:14;;;;;;;5.63;1.30;;;;;;;;;;4968758;28;20509;-65
2024/04/07 05:30:40;;;;;;;6.05;1.23;;;;;;;;;;4947284;28;20482;-65
2024/04/07 05:33:06;;;;;;;5.85;1.63;;;;;;;;;;4966241;28;20045;-65
2024/04/07 05:35:33;;;;;;;4.00;1.00;;;;;;;;;;4966574;28;20117;-65
2024/04/07 05:38:00;;;;;;;2.58;0.90;;;;;;;;;;4965776;28;20043;-65
2024/04/07 05:40:26;;;;;;;6.78;1.60;;;;;;;;;;4965853;28;20043;-65
2024/04/07 05:42:53;;;;;;;4.47;1.23;;;;;;;;;;4950327;28;20435;-65
2024/04/07 05:45:19;;;;;;;4.28;0.98;;;;;;;;;;4966231;28;20081;-65
2024/04/07 05:47:49;;;;;;;4.82;1.05;;;;;;;;;;4967314;28;20157;-65
2024/04/07 05:50:16;;;;;;;6.57;1.48;;;;;;;;;;4966582;28;20035;-65
2024/04/07 05:52:42;;;;;;;6.40;1.17;;;;;;;;;;4966396;28;20042;-65
2024/04/07 05:55:09;;;;;;;10.75;1.58;;;;;;;;;;4950336;28;20140;-66
2024/04/07 05:57:38;;;;;;;5.72;1.00;;;;;;;;;;4965460;28;20043;-65
2024/04/07 06:00:08;;;;;;;5.53;1.90;;;;;;;;;;4965356;28;20061;-65
2024/04/07 06:02:36;;;;;;;3.80;1.20;;;;;;;;;;4946603;28;20158;-65
2024/04/07 06:05:02;;;;;;;6.30;1.63;;;;;;;;;;4951915;28;20069;-65
2024/04/07 06:07:29;;;;;;;5.65;1.33;;;;;;;;;;4940586;28;20062;-65
2024/04/07 06:09:55;;;;;;;5.78;1.23;;;;;;;;;;4963911;28;20107;-65
2024/04/07 06:12:22;;;;;;;5.88;1.50;;;;;;;;;;4966020;28;20050;-65
2024/04/07 06:14:48;;;;;;;6.05;1.30;;;;;;;;;;4965772;28;20046;-65
2024/04/07 06:17:16;;;;;;;6.60;1.50;;;;;;;;;;4965293;28;20458;-65
2024/04/07 06:19:42;;;;;;;6.60;1.25;;;;;;;;;;4946390;28;20129;-65
2024/04/07 06:22:09;;;;;;;5.20;1.20;;;;;;;;;;4945665;28;20105;-66
2024/04/07 06:24:35;;;;;;;5.93;1.20;;;;;;;;;;4964920;28;20082;-62
2024/04/07 06:27:01;;;;;;;5.13;1.27;;;;;;;;;;4962483;28;20042;-66
2024/04/07 06:29:27;;;;;;;3.97;1.20;;;;;;;;;;4947243;28;20042;-67
2024/04/07 06:31:54;;;;;;;5.80;1.25;;;;;;;;;;4960436;28;20129;-65
2024/04/07 06:34:20;;;;;;;6.95;1.40;;;;;;;;;;4965167;28;20075;-66
2024/04/07 06:36:47;;;;;;;8.98;1.40;;;;;;;;;;4943002;28;20039;-66
2024/04/07 06:39:13;;;;;;;6.57;1.40;;;;;;;;;;4966231;28;20047;-66
2024/04/07 06:41:39;;;;;;;7.40;1.40;;;;;;;;;;4945238;28;20087;-66
2024/04/07 06:44:05;;;;;;;6.95;1.55;;;;;;;;;;4964452;28;20055;-66
2024/04/07 06:46:32;;;;;;;7.40;1.52;;;;;;;;;;4965611;28;20034;-66
2024/04/07 06:48:58;;;;;;;7.82;1.77;;;;;;;;;;4961441;28;20507;-66
2024/04/07 06:51:28;;;;;;;7.80;2.38;;;;;;;;;;4946267;28;20156;-66
2024/04/07 06:53:54;;;;;;;9.82;1.70;;;;;;;;;;4949424;28;20081;-65
2024/04/07 06:56:20;;;;;;;9.38;1.90;;;;;;;;;;4961703;28;20046;-66
2024/04/07 06:58:47;;;;;;;8.85;1.77;;;;;;;;;;4948167;28;20096;-67
2024/04/07 07:01:13;;;;;;;13.18;2.13;;;;;;;;;;4956344;28;20134;-67
2024/04/07 07:03:39;;;;;;;11.70;2.10;;;;;;;;;;4970089;28;20518;-67
2024/04/07 07:06:05;;;;;;;10.05;1.70;;;;;;;;;;4952080;28;20054;-67
2024/04/07 07:08:32;;;;;;;9.48;1.95;;;;;;;;;;4949273;28;20054;-67
2024/04/07 07:10:59;;;;;;;10.65;2.00;;;;;;;;;;4969379;28;20094;-67
2024/04/07 07:13:27;;;;;;;13.32;2.35;;;;;;;;;;4951904;28;20126;-67
2024/04/07 07:15:53;;;;;;;14.27;2.55;;;;;;;;;;4953942;28;20089;-66
2024/04/07 07:18:20;;;;;;;7.47;1.63;;;;;;;;;;4973319;28;20170;-64
2024/04/07 07:20:46;;;;;;;10.52;2.55;;;;;;;;;;4974438;28;20041;-66
2024/04/07 07:23:14;;;;;;;8.82;2.00;;;;;;;;;;4953639;28;20058;-67
2024/04/07 07:25:41;;;;;;;16.77;2.40;;;;;;;;;;4973575;28;20207;-67
2024/04/07 07:28:07;;;;;;;14.63;4.38;;;;;;;;;;4972352;28;20074;-67
2024/04/07 07:30:35;;;;;;;11.43;2.20;;;;;;;;;;4973462;28;20395;-66
2024/04/07 07:33:03;;;;;;;8.23;2.47;;;;;;;;;;4974000;28;20059;-66
2024/04/07 07:35:30;;;;;;;12.52;2.20;;;;;;;;;;4971832;28;21926;-67
2024/04/07 07:37:56;;;;;;;8.20;1.83;;;;;;;;;;4972564;28;20054;-67
2024/04/07 07:40:23;;;;;;;7.72;1.50;;;;;;;;;;4972933;28;20034;-67
2024/04/07 07:42:49;;;;;;;5.82;1.65;;;;;;;;;;4972298;28;20054;-67
2024/04/07 07:45:17;;;;;;;8.52;1.60;;;;;;;;;;4954440;28;20471;-67
2024/04/07 07:47:43;;;;;;;6.55;1.73;;;;;;;;;;4955666;28;20498;-67
2024/04/07 07:50:09;;;;;;;7.53;1.42;;;;;;;;;;4952944;28;20550;-66
2024/04/07 07:52:36;;;;;;;9.52;3.00;;;;;;;;;;4972662;28;20042;-67
2024/04/07 07:55:02;;;;;;;8.88;1.88;;;;;;;;;;4973580;28;20101;-67
2024/04/07 07:57:28;;;;;;;6.07;1.48;;;;;;;;;;4973274;28;20063;-67
2024/04/07 07:59:54;;;;;;;8.82;1.88;;;;;;;;;;4972537;28;20093;-78
2024/04/07 08:02:20;;;;;;;10.35;1.92;;;;;;;;;;4973237;28;20479;-67
2024/04/07 08:04:47;;;;;;;9.90;1.70;;;;;;;;;;4952985;28;20051;-67
2024/04/07 08:07:14;;;;;;;12.30;2.20;;;;;;;;;;4967477;28;20082;-67
2024/04/07 08:09:40;;;;;;;10.68;1.83;;;;;;;;;;4955684;28;20051;-67
2024/04/07 08:12:07;;;;;;;15.80;2.90;;;;;;;;;;4952819;28;20043;-67
2024/04/07 08:14:33;;;;;;;11.98;2.60;;;;;;;;;;4955166;28;20498;-67
2024/04/07 08:16:59;;;;;;;14.00;2.90;;;;;;;;;;4956664;28;20043;-67
2024/04/07 08:19:25;;;;;;;12.65;2.50;;;;;;;;;;4953362;28;20039;-66
2024/04/07 08:21:52;;;;;;;13.82;3.08;;;;;;;;;;4971636;28;20142;-67
2024/04/07 08:24:18;;;;;;;15.35;2.97;;;;;;;;;;4939484;28;20410;-67
2024/04/07 08:26:44;;;;;;;15.13;2.30;;;;;;;;;;4972038;28;20081;-67
2024/04/07 08:29:10;;;;;;;15.23;2.40;;;;;;;;;;4971365;28;20042;-67
2024/04/07 08:31:36;;;;;;;12.70;2.30;;;;;;;;;;4973105;28;20137;-67
2024/04/07 08:34:02;;;;;;;10.43;2.28;;;;;;;;;;4971404;28;20471;-67
2024/04/07 08:36:29;;;;;;;13.50;2.38;;;;;;;;;;4971612;28;20039;-67
2024/04/07 08:38:55;;;;;;;12.25;2.42;;;;;;;;;;4969742;28;20050;-81
2024/04/07 08:41:21;;;;;;;10.18;2.47;;;;;;;;;;4947558;28;20078;-67
2024/04/07 08:43:49;;;;;;;14.13;3.22;;;;;;;;;;4951870;28;20541;-67
2024/04/07 08:46:16;;;;;;;17.92;4.03;;;;;;;;;;4967874;28;20076;-67
2024/04/07 08:48:42;;;;;;;17.42;3.05;;;;;;;;;;4951403;28;20070;-67
2024/04/07 08:51:10;;;;;;;11.52;2.63;;;;;;;;;;4968348;28;20039;-67
2024/04/07 08:53:39;;;;;;;11.38;2.60;;;;;;;;;;4972807;28;20046;-67
2024/04/07 08:56:07;;;;;;;7.75;2.20;;;;;;;;;;4954589;28;20345;-67
2024/04/07 08:58:35;;;;;;;9.75;2.13;;;;;;;;;;4952140;28;20047;-66
2024/04/07 09:01:01;;;;;;;12.57;4.03;;;;;;;;;;4970069;28;20050;-67
2024/04/07 09:03:29;;;;;;;8.18;2.35;;;;;;;;;;4967672;28;20053;-66
2024/04/07 09:05:55;;;;;;;9.57;2.47;;;;;;;;;;4947129;28;20145;-66
2024/04/07 09:08:21;;;;;;;12.13;3.33;;;;;;;;;;4952137;28;20062;-66
2024/04/07 09:10:48;;;;;;;7.93;2.65;;;;;;;;;;4969792;28;20038;-66
2024/04/07 09:13:16;;;;;;;13.93;2.22;;;;;;;;;;4952921;28;20413;-66
2024/04/07 09:15:43;;;;;;;10.07;2.42;;;;;;;;;;4949186;28;20344;-66
2024/04/07 09:18:11;;;;;;;9.80;2.60;;;;;;;;;;4967239;28;20137;-66
2024/04/07 09:20:37;;;;;;;12.50;2.75;;;;;;;;;;4923913;28;20054;-66
2024/04/07 09:23:03;;;;;;;9.07;2.55;;;;;;;;;;4970904;28;20403;-66
2024/04/07 09:25:32;;;;;;;6.70;2.22;;;;;;;;;;4950975;28;20046;-67
2024/04/07 09:27:59;;;;;;;9.40;3.50;;;;;;;;;;4969247;28;20047;-66
2024/04/07 09:30:25;;;;;;;10.93;2.20;;;;;;;;;;4968669;28;20034;-67
2024/04/07 09:32:52;;;;;;;8.40;2.20;;;;;;;;;;4970566;28;20043;-66
2024/04/07 09:35:18;;;;;;;9.25;2.15;;;;;;;;;;4953768;28;20153;-66
2024/04/07 09:37:44;;;;;;;9.10;2.88;;;;;;;;;;4950989;28;20057;-67
2024/04/07 09:40:11;;;;;;;12.70;2.60;;;;;;;;;;4951557;28;20035;-66
2024/04/07 09:42:38;;;;;;;12.10;3.13;;;;;;;;;;4950865;28;20464;-66
2024/04/07 09:45:06;;;;;;;8.75;2.40;;;;;;;;;;4962710;28;20073;-66
2024/04/07 09:47:35;;;;;;;8.30;2.40;;;;;;;;;;4951905;28;20101;-66
2024/04/07 09:50:05;;;;;;;10.90;2.30;;;;;;;;;;4967868;28;20054;-67
2024/04/07 09:52:32;;;;;;;10.27;2.25;;;;;;;;;;4951302;28;20494;-67
2024/04/07 09:55:06;;;;;;;9.82;2.55;;;;;;;;;;4963148;28;20054;-67
2024/04/07 09:57:32;;;;;;;8.02;2.25;;;;;;;;;;4955068;28;20054;-67
2024/04/07 09:59:59;;;;;;;8.73;2.55;;;;;;;;;;4965992;28;20101;-67
2024/04/07 10:02:26;;;;;;;8.07;3.33;;;;;;;;;;4945973;28;20132;-67
2024/04/07 10:04:53;;;;;;;6.90;2.55;;;;;;;;;;4977196;28;20130;-67
2024/04/07 10:07:20;;;;;;;5.57;1.80;;;;;;;;;;4972110;28;20153;-67
2024/04/07 10:09:49;;;;;;;6.55;2.17;;;;;;;;;;4965241;28;20467;-67
2024/04/07 10:12:27;;;;;;;7.43;2.35;;;;;;;;;;4965169;28;20495;-67
2024/04/07 10:14:53;;;;;;;6.72;1.85;;;;;;;;;;4940273;28;20059;-66
2024/04/07 10:17:20;;;;;;;5.40;1.77;;;;;;;;;;4945364;28;20094;-65
2024/04/07 10:19:47;;;;;;;5.50;1.50;;;;;;;;;;4968641;28;20054;-65
2024/04/07 10:22:16;;;;;;;6.63;1.65;;;;;;;;;;4971859;28;20053;-65
2024/04/07 10:24:42;;;;;;;5.70;1.85;;;;;;;;;;4950350;28;20487;-65
2024/04/07 10:27:09;;;;;;;6.40;1.70;;;;;;;;;;4960208;28;20092;-65
2024/04/07 10:29:37;;;;;;;7.30;2.17;;;;;;;;;;4950327;28;20401;-65
2024/04/07 10:32:07;;;;;;;9.40;2.05;;;;;;;;;;4965411;28;20443;-65
2024/04/07 10:34:34;;;;;;;7.00;1.38;;;;;;;;;;4965763;28;20085;-65
2024/04/07 10:37:02;;;;;;;8.23;2.00;;;;;;;;;;4965388;28;20039;-65
2024/04/07 10:39:29;;;;;;;6.00;1.70;;;;;;;;;;4958145;28;20053;-65
2024/04/07 10:41:55;;;;;;;8.55;1.75;;;;;;;;;;4966048;28;20125;-65
2024/04/07 10:44:21;;;;;;;5.45;1.50;;;;;;;;;;4960095;28;20042;-65
2024/04/07 10:46:48;;;;;;;7.88;2.03;;;;;;;;;;4949035;28;20211;-65
2024/04/07 10:49:14;;;;;;;10.25;2.90;;;;;;;;;;4943867;28;20042;-65
2024/04/07 10:51:46;;;;;;;7.60;1.73;;;;;;;;;;4964048;28;20834;-65
2024/04/07 10:54:12;;;;;;;10.15;2.00;;;;;;;;;;4945971;28;20471;-65
2024/04/07 10:56:38;;;;;;;8.85;2.25;;;;;;;;;;4961444;28;20045;-65
2024/04/07 10:59:05;;;;;;;7.55;2.10;;;;;;;;;;4964190;28;20055;-65
2024/04/07 11:01:31;;;;;;;8.73;2.10;;;;;;;;;;4933489;28;20284;-65
2024/04/07 11:03:57;;;;;;;8.63;2.20;;;;;;;;;;4944539;28;20138;-65
2024/04/07 11:06:24;;;;;;;7.90;1.85;;;;;;;;;;4971593;28;20070;-65
2024/04/07 11:08:51;;;;;;;6.63;1.52;;;;;;;;;;4970923;28;20046;-65
2024/04/07 11:11:17;;;;;;;7.90;1.67;;;;;;;;;;4971343;28;20058;-65
2024/04/07 11:13:46;;;;;;;8.57;2.03;;;;;;;;;;4953557;28;20069;-65
2024/04/07 11:16:12;;;;;;;7.90;1.48;;;;;;;;;;4969749;28;20145;-65
2024/04/07 11:18:39;;;;;;;6.32;1.33;;;;;;;;;;4954006;28;20087;-65
2024/04/07 11:21:05;;;;;;;6.97;1.50;;;;;;;;;;4971054;28;20482;-65
2024/04/07 11:23:32;;;;;;;5.57;1.10;;;;;;;;;;4965480;28;20043;-65
2024/04/07 11:25:59;;;;;;;8.98;1.50;;;;;;;;;;4964530;28;20083;-65
2024/04/07 11:28:26;;;;;;;6.00;1.30;;;;;;;;;;4963016;28;20123;-65
2024/04/07 11:30:55;;;;;;;8.20;1.73;;;;;;;;;;4948251;28;20051;-65
2024/04/07 11:33:21;;;;;;;6.00;1.58;;;;;;;;;;4962358;28;20157;-65
2024/04/07 11:35:48;;;;;;;5.95;1.20;;;;;;;;;;4966123;28;20490;-65
2024/04/07 11:38:14;;;;;;;7.70;1.50;;;;;;;;;;4944128;28;20047;-65
2024/04/07 11:40:40;;;;;;;9.15;2.08;;;;;;;;;;4945573;28;20105;-65
2024/04/07 11:43:07;;;;;;;5.88;1.45;;;;;;;;;;4965681;28;20127;-65
2024/04/07 11:45:34;;;;;;;5.57;1.42;;;;;;;;;;4949205;28;20066;-65
2024/04/07 11:48:00;;;;;;;7.95;2.03;;;;;;;;;;4958864;28;20124;-65
2024/04/07 11:50:27;;;;;;;4.93;1.35;;;;;;;;;;4948025;28;20042;-65
2024/04/07 11:52:53;;;;;;;7.90;1.67;;;;;;;;;;4953935;28;20510;-65
2024/04/07 11:55:19;;;;;;;4.25;1.30;;;;;;;;;;4943532;28;20043;-65
2024/04/07 11:57:45;;;;;;;9.85;1.80;;;;;;;;;;4950163;28;20101;-65
2024/04/07 12:00:12;;;;;;;5.25;1.42;;;;;;;;;;4966536;28;20046;-65
2024/04/07 12:02:38;;;;;;;8.45;1.60;;;;;;;;;;4966910;28;20046;-65
2024/04/07 12:05:05;;;;;;;8.30;1.77;;;;;;;;;;4952391;28;20509;-65
2024/04/07 12:07:31;;;;;;;8.35;2.17;;;;;;;;;;4956532;28;20077;-65
2024/04/07 12:09:58;;;;;;;6.60;2.20;;;;;;;;;;4974013;28;20057;-65
2024/04/07 12:12:26;;;;;;;9.55;2.05;;;;;;;;;;4974091;28;20095;-65
2024/04/07 12:14:52;;;;;;;6.25;2.22;;;;;;;;;;4956993;28;20078;-65
2024/04/07 12:17:19;;;;;;;7.70;1.50;;;;;;;;;;4974255;28;20054;-65
2024/04/07 12:19:45;;;;;;;11.93;1.80;;;;;;;;;;4973895;28;20126;-65
2024/04/07 12:22:18;;;;;;;8.63;1.85;;;;;;;;;;4974186;28;20115;-66
2024/04/07 12:24:44;;;;;;;6.03;1.55;;;;;;;;;;4974151;28;20130;-65
2024/04/07 12:27:11;;;;;;;6.22;1.80;;;;;;;;;;4955923;28;20058;-65
2024/04/07 12:29:39;;;;;;;4.85;1.00;;;;;;;;;;4974107;28;20046;-65
2024/04/07 12:32:06;;;;;;;8.05;1.85;;;;;;;;;;4967065;28;20057;-65
2024/04/07 12:34:32;;;;;;;6.75;1.30;;;;;;;;;;4972584;28;20039;-66
2024/04/07 12:36:58;;;;;;;7.40;1.60;;;;;;;;;;4949997;28;20065;-65
2024/04/07 12:39:24;;;;;;;5.95;1.73;;;;;;;;;;4967628;28;20135;-66
2024/04/07 12:41:50;;;;;;;9.05;1.85;;;;;;;;;;4966520;28;20043;-65
2024/04/07 12:44:17;;;;;;;4.75;1.38;;;;;;;;;;4966140;28;20046;-65
2024/04/07 12:46:44;;;;;;;7.47;1.95;;;;;;;;;;4952234;28;20207;-65
2024/04/07 12:49:11;;;;;;;8.45;1.48;;;;;;;;;;4965701;28;20063;-65
2024/04/07 12:51:37;;;;;;;7.75;1.33;;;;;;;;;;4967836;28;20072;-66
2024/04/07 12:54:03;;;;;;;4.35;0.98;;;;;;;;;;4971088;28;20038;-65
2024/04/07 12:56:29;;;;;;;5.05;1.17;;;;;;;;;;4965768;28;20043;-65
2024/04/07 12:58:55;;;;;;;6.82;1.73;;;;;;;;;;4951669;28;20051;-65
2024/04/07 13:01:22;;;;;;;5.95;1.50;;;;;;;;;;4947102;28;20456;-65
2024/04/07 13:03:48;;;;;;;5.40;0.88;;;;;;;;;;4949128;28;20506;-65
2024/04/07 13:06:14;;;;;;;6.63;1.83;;;;;;;;;;4953564;28;20038;-65
2024/04/07 13:08:40;;;;;;;3.83;1.00;;;;;;;;;;4968909;28;20066;-67
2024/04/07 13:11:07;;;;;;;6.65;1.90;;;;;;;;;;4947124;28;20046;-65
2024/04/07 13:13:34;;;;;;;6.63;1.63;;;;;;;;;;4964127;28;20145;-65
2024/04/07 13:16:01;;;;;;;6.63;1.70;;;;;;;;;;4966443;28;20051;-66
2024/04/07 13:18:27;;;;;;;4.68;1.17;;;;;;;;;;4948461;28;20127;-66
2024/04/07 13:20:55;;;;;;;4.18;1.02;;;;;;;;;;4946090;28;20039;-65
2024/04/07 13:23:21;;;;;;;5.10;1.13;;;;;;;;;;4946250;28;20097;-66
2024/04/07 13:25:48;;;;;;;6.72;1.63;;;;;;;;;;4947537;28;20058;-66
2024/04/07 13:28:15;;;;;;;4.90;1.08;;;;;;;;;;4964322;28;20053;-66
2024/04/07 13:30:41;;;;;;;5.55;1.10;;;;;;;;;;4961786;28;20046;-65
2024/04/07 13:33:07;;;;;;;5.88;1.50;;;;;;;;;;4961254;28;20399;-65
2024/04/07 13:35:35;;;;;;;7.35;1.25;;;;;;;;;;4963449;28;20093;-65
2024/04/07 13:38:01;;;;;;;5.18;0.98;;;;;;;;;;4945388;28;20051;-65
2024/04/07 13:40:27;;;;;;;5.53;1.10;;;;;;;;;;4961838;28;20466;-65
2024/04/07 13:42:53;;;;;;;3.92;1.17;;;;;;;;;;4946432;28;20059;-65
2024/04/07 13:45:20;;;;;;;4.85;1.00;;;;;;;;;;4945739;28;20454;-65
2024/04/07 13:47:46;;;;;;;4.75;1.20;;;;;;;;;;4966151;28;20118;-65
2024/04/07 13:50:12;;;;;;;5.75;1.13;;;;;;;;;;4953096;28;20047;-65
2024/04/07 13:52:38;;;;;;;4.93;0.98;;;;;;;;;;4963588;28;20057;-65
2024/04/07 13:55:05;;;;;;;5.93;1.10;;;;;;;;;;4947159;28;20098;-65
2024/04/07 13:57:33;;;;;;;5.57;1.23;;;;;;;;;;4964766;28;20039;-65
2024/04/07 13:59:59;;;;;;;4.20;1.08;;;;;;;;;;4966527;28;20109;-65
2024/04/07 14:02:25;;;;;;;4.90;1.10;;;;;;;;;;4948228;28;20403;-65
2024/04/07 14:04:52;;;;;;;4.88;1.00;;;;;;;;;;4967034;28;20049;-65
2024/04/07 14:07:18;;;;;;;3.50;0.75;;;;;;;;;;4967046;28;20062;-65
2024/04/07 14:09:44;;;;;;;4.97;1.50;;;;;;;;;;4963229;28;20078;-65
2024/04/07 14:12:10;;;;;;;3.40;1.08;;;;;;;;;;4948013;28;20372;-65
2024/04/07 14:14:37;;;;;;;5.85;1.00;;;;;;;;;;4949054;28;20082;-65
2024/04/07 14:17:05;;;;;;;5.00;0.95;;;;;;;;;;4965374;28;20038;-65
2024/04/07 14:19:31;;;;;;;3.63;1.00;;;;;;;;;;4963477;28;20347;-65
2024/04/07 14:21:57;;;;;;;4.50;1.00;;;;;;;;;;4948506;28;20046;-65
2024/04/07 14:24:23;;;;;;;4.78;1.10;;;;;;;;;;4964633;28;20042;-65
2024/04/07 14:26:50;;;;;;;3.92;1.00;;;;;;;;;;4947518;28;20057;-65
2024/04/07 14:29:16;;;;;;;6.22;1.20;;;;;;;;;;4961502;28;20763;-65
2024/04/07 14:31:42;;;;;;;5.47;1.33;;;;;;;;;;4964144;28;20093;-65
2024/04/07 14:34:08;;;;;;;6.85;1.00;;;;;;;;;;4947276;28;20326;-65
2024/04/07 14:36:35;;;;;;;4.75;1.05;;;;;;;;;;4953645;28;20087;-65
2024/04/07 14:39:02;;;;;;;6.40;0.93;;;;;;;;;;4947074;28;20734;-65